Blackpipe, South Dakota
Current Conditions -  °F | °C
As of 11:55 PM on Thursday 27 Nov 2014 (Local Time) from KPHP Reporting Station
Clear Clear  
Wind Chill: 17°   Ceiling: Unl
Heat Index: 24°   Visibility: 10mi
Dew Point: 20°   Wind: 6mph
Humidity: 84%   Direction: 280°W
Pressure: 29.84"   Gusts: NA
Location:  43.4752°N, 101.081°W
Report Text: KPHP 280555Z AUTO 28005KT 10SM CLR M04/M07 A2984 RMK AO2 SLP129 T10441067 10000 21056 56012
Loading
Personal Weather Stations






























Interactive Weather Map New forecast layout! Learn more

10-Day Weather Forecast

Advertisements
Track Severe Weather on mobile